• Join FlightAware (Why Join?)
  • Login
  • US Flag 
12:22PM EDT


 

Airport Tracker/Info


-or-


 

Live Flight TrackerFlight Track Log ✈ N6GD ✈ 13-Jun-2014 ✈ KLEX - KMSP

Flight Track Log - Related Links

Times and Time Zones

All times are in EDT time to prevent confusion due to time zone crossing. See the N6GD flight status page for this flight to view local times or setup timezone preferences in your user account.

Time Position Orientation Groundspeed Altitude Reporting Facility
EDT Latitude Longitude Course Direction KTS MPH feet Rate Location/Type
09:04AM 37.8894 -84.7142 255° West 258 297 6,000  Level Indianapolis Center
09:05AM 37.8719 -84.7978 255° West 261 300 7,100 1,860 Climbing Indianapolis Center
09:06AM 37.8664 -84.9072 266° West 262 302 9,900 2,280 Climbing Indianapolis Center
09:07AM 37.8972 -85.0008 293° West 282 325 11,800 1,740 Climbing Indianapolis Center
09:08AM 37.9347 -85.1014 295° West 308 354 13,500 1,740 Climbing Indianapolis Center
09:09AM 37.9711 -85.2033 294° West 313 360 15,400 1,680 Climbing Indianapolis Center
09:10AM 38.0119 -85.3206 294° West 323 372 17,000 1,560 Climbing Indianapolis Center
09:11AM 38.0544 -85.4272 297° West 333 383 18,700 1,440 Climbing Indianapolis Center
09:12AM 38.0942 -85.5358 295° West 334 384 20,000 1,200 Climbing Indianapolis Center
09:13AM 38.1775 -85.5947 331° Northwest 373 429 21,300 1,080 Climbing Indianapolis Center
09:14AM 38.2828 -85.5956 360° North 375 432 22,300 1,020 Climbing Indianapolis Center
09:15AM 38.3872 -85.6175 351° North 379 436 23,500 1,140 Climbing Indianapolis Center
09:16AM 38.4864 -85.6689 338° Northwest 385 443 24,700 1,200 Climbing Indianapolis Center
09:17AM 38.6042 -85.7319 337° Northwest 384 442 26,000 1,080 Climbing Indianapolis Center
09:18AM 38.6956 -85.7792 338° Northwest 384 442 27,000 480 Climbing Indianapolis Center
09:19AM 38.7964 -85.8325 338° Northwest 387 445 27,000  Level Indianapolis Center
09:20AM 38.9033 -85.8897 337° Northwest 409 471 27,000 780 Level Indianapolis Center
09:21AM 39.0328 -85.9581 338° Northwest 417 480 28,700 1,560 Climbing Indianapolis Center
09:23AM 39.1381 -86.0136 338° Northwest 417 480 30,300 1,500 Climbing Indianapolis Center
09:24AM 39.2428 -86.0711 337° Northwest 412 474 31,800 1,500 Climbing Indianapolis Center
09:25AM 39.3458 -86.1256 338° Northwest 406 467 33,400 1,020 Climbing Indianapolis Center
09:26AM 39.4489 -86.1814 337° Northwest 405 466 34,000 480 Climbing Indianapolis Center
09:27AM 39.5589 -86.2408 337° Northwest 418 481 34,400 480 Climbing Indianapolis Center
09:28AM 39.6817 -86.3067 338° Northwest 430 495 35,000 540 Climbing Indianapolis Center
09:29AM 39.7925 -86.3678 337° Northwest 432 497 35,600 720 Climbing Indianapolis Center
09:30AM 39.8958 -86.4244 337° Northwest 421 484 36,500 780 Climbing Indianapolis Center
09:31AM 40.0014 -86.4825 337° Northwest 418 481 37,300 720 Climbing Indianapolis Center
09:32AM 40.1264 -86.5514 337° Northwest 411 473 38,000 300 Climbing Indianapolis Center
09:33AM 40.2336 -86.6086 338° Northwest 411 473 38,000  Level Chicago Center
09:34AM 40.3428 -86.6706 337° Northwest 422 486 38,000  Level Chicago Center
09:35AM 40.4747 -86.7433 337° Northwest 425 489 38,000  Level Chicago Center
09:36AM 40.5831 -86.8044 337° Northwest 426 490 38,000  Level Chicago Center
09:37AM 40.6908 -86.8644 337° Northwest 422 486 38,000  Level Chicago Center
09:38AM 40.8072 -86.9300 337° Northwest 416 479 38,000  Level Chicago Center
09:39AM 40.9122 -86.9889 337° Northwest 415 478 38,000  Level Chicago Center
09:40AM 41.0181 -87.0481 337° Northwest 414 476 38,000  Level Chicago Center
09:41AM 41.1214 -87.1072 337° Northwest 408 470 38,000 -300 Level Chicago Center
09:42AM 41.2261 -87.1675 337° Northwest 410 472 37,500 -780 Descending Chicago Center
09:43AM 41.3508 -87.2392 337° Northwest 410 472 36,500 -780 Descending Chicago Center
09:44AM 41.4556 -87.2994 337° Northwest 410 472 36,000 -300 Descending Chicago Center
09:45AM 41.5575 -87.3583 337° Northwest 408 470 36,000  Level Chicago Center
09:46AM 41.6600 -87.4175 337° Northwest 407 468 36,000  Level Chicago Center
09:47AM 41.7622 -87.4778 336° Northwest 403 464 36,000  Level Chicago Center
09:48AM 41.8883 -87.5494 337° Northwest 409 471 36,000  Level Chicago Center
09:49AM 41.9928 -87.6108 336° Northwest 409 471 36,000  Level Chicago Center
09:51AM 42.0975 -87.6728 336° Northwest 410 472 36,000  Level Chicago Center
09:52AM 42.1933 -87.7525 328° Northwest 406 467 36,000  Level Chicago Center
09:53AM 42.2800 -87.8497 320° Northwest 407 468 36,000  Level Chicago Center
09:54AM 42.3744 -87.9581 320° Northwest 407 468 36,000  Level Chicago Center
09:56AM 42.5497 -88.1586 320° Northwest 412 474 36,000  Level Chicago Center
09:57AM 42.6564 -88.2797 320° Northwest 413 475 36,000  Level Chicago Center
09:58AM 42.7433 -88.3803 320° Northwest 412 474 36,000  Level Chicago Center
09:59AM 42.8289 -88.4806 319° Northwest 408 470 36,000  Level Chicago Center
10:00AM 42.9150 -88.5789 320° Northwest 406 467 36,000  Level Chicago Center
10:01AM 43.0003 -88.6783 320° Northwest 405 466 36,000  Level Chicago Center
10:02AM 43.0867 -88.7797 319° Northwest 405 466 36,000  Level Chicago Center
10:03AM 43.1919 -88.9011 320° Northwest 407 468 36,000  Level Chicago Center
10:04AM 43.2783 -89.0033 319° Northwest 408 470 36,000 -300 Level Chicago Center
10:05AM 43.3625 -89.1022 320° Northwest 401 461 35,500 -540 Descending Chicago Center
10:06AM 43.4444 -89.1983 320° Northwest 393 452 35,000 -480 Descending Chicago Center
10:07AM 43.5261 -89.2958 319° Northwest 388 447 34,600 -420 Descending Chicago Center
10:08AM 43.6069 -89.3931 319° Northwest 388 447 34,200 -300 Descending Chicago Center
10:09AM 43.6886 -89.4906 319° Northwest 387 445 34,000 -120 Descending Chicago Center
10:10AM 43.7842 -89.6075 319° Northwest 387 445 34,000  Level Chicago Center
10:11AM 43.8647 -89.7022 320° Northwest 383 441 34,000  Level Chicago Center
10:12AM 43.9436 -89.8008 318° Northwest 383 441 34,000  Level Chicago Center
10:13AM 44.0247 -89.8983 319° Northwest 383 441 34,000  Level Chicago Center
10:14AM 44.1000 -90.0019 315° West 383 441 34,000  Level Chicago Center
10:15AM 44.1797 -90.1389 309° West 383 441 34,000  Level Chicago Center
10:16AM 44.2286 -90.2714 297° West 386 444 34,000  Level Chicago Center
10:17AM 44.2694 -90.3981 294° West 386 444 34,000  Level Chicago Center
10:18AM 44.3125 -90.5294 295° West 383 441 34,000 -360 Level Chicago Center
10:19AM 44.3539 -90.6572 294° West 370 426 33,300 -1,560 Descending Chicago Center
10:21AM 44.4003 -90.7969 295° West 343 395 30,800 -2,280 Descending Chicago Center
10:22AM 44.4425 -90.9267 295° West 363 418 28,600 -2,100 Descending Chicago Center
10:23AM 44.4894 -91.0683 295° West 397 457 26,500 -2,040 Descending Chicago Center
10:24AM 44.5342 -91.2131 293° West 407 468 24,400 -2,040 Descending Chicago Center
10:25AM 44.5856 -91.3747 294° West 389 448 22,300 -1,980 Descending Chicago Center
10:26AM 44.6278 -91.5036 295° West 373 429 20,400 -1,800 Descending Chicago Center
10:27AM 44.6856 -91.6894 294° West 372 428 17,800 -1,680 Descending Minneapolis Center
10:28AM 44.7261 -91.8189 294° West 370 426 16,300 -1,800 Descending Minneapolis Center
10:29AM 44.7742 -91.9694 294° West 358 412 14,200 -1,980 Descending Minneapolis Center
10:30AM 44.8142 -92.0969 294° West 358 412 12,300 -1,860 Descending Minneapolis Center
10:31AM 44.8511 -92.2192 293° West 346 398 10,400 -1,140 Descending Minneapolis Center
10:32AM 44.8600 -92.3511 275° West 345 397 10,000 -480 Descending Minneapolis Center
10:33AM 44.8164 -92.4658 242° Southwest 336 387 9,500 -540 Descending Minneapolis Center
10:34AM 44.7700 -92.5614 236° Southwest 299 344 8,900 -900 Descending Minneapolis Center
10:35AM 44.7361 -92.6742 247° West 264 304 7,700 -1,080 Descending Minneapolis Center
10:36AM 44.7211 -92.7708 258° West 257 296 6,700 -1,140 Descending Minneapolis Center
10:38AM 44.7253 -92.8642 274° West 248 285 5,400 -1,440 Descending Minneapolis Center
10:39AM 44.7606 -92.9422 302° West 239 275 3,800 -840 Descending Minneapolis Center
10:40AM 44.7925 -93.0172 301° West 228 262 3,700 -540 Descending Minneapolis Center
10:41AM 44.8242 -93.0875 302° West 172 198 2,800 -780 Descending Minneapolis Center
10:42AM 44.8458 -93.1361 302° West 151 174 2,100 -840 Descending Minneapolis Center
10:43AM 44.8658 -93.1833 301° West 145 167 1,100 -1,020 Descending Minneapolis Center
10:45AM 44.8667 -93.2167 270° West  Level FlightAware Approximate